sensor_id;sensor_type;location;lat;lon;timestamp;P1;durP1;ratioP1;P2;durP2;ratioP2
13269;SDS011;6703;51.994;7.570;2023-04-10T00:00:46;89.55;;;38.03;;
13269;SDS011;6703;51.994;7.570;2023-04-10T00:03:18;83.10;;;37.70;;
13269;SDS011;6703;51.994;7.570;2023-04-10T00:05:47;95.70;;;38.53;;
13269;SDS011;6703;51.994;7.570;2023-04-10T00:08:15;95.30;;;38.90;;
13269;SDS011;6703;51.994;7.570;2023-04-10T00:10:43;87.82;;;38.05;;
13269;SDS011;6703;51.994;7.570;2023-04-10T00:13:10;97.45;;;39.58;;
13269;SDS011;6703;51.994;7.570;2023-04-10T00:15:38;107.63;;;43.58;;
13269;SDS011;6703;51.994;7.570;2023-04-10T00:18:06;111.30;;;44.27;;
13269;SDS011;6703;51.994;7.570;2023-04-10T00:20:33;114.85;;;44.72;;
13269;SDS011;6703;51.994;7.570;2023-04-10T00:23:03;122.97;;;47.00;;
13269;SDS011;6703;51.994;7.570;2023-04-10T00:25:30;119.97;;;47.45;;
13269;SDS011;6703;51.994;7.570;2023-04-10T00:27:58;124.10;;;49.22;;
13269;SDS011;6703;51.994;7.570;2023-04-10T00:30:25;128.02;;;50.67;;
13269;SDS011;6703;51.994;7.570;2023-04-10T00:32:53;126.40;;;50.28;;
13269;SDS011;6703;51.994;7.570;2023-04-10T00:35:33;126.38;;;51.70;;
13269;SDS011;6703;51.994;7.570;2023-04-10T00:38:02;127.00;;;49.67;;
13269;SDS011;6703;51.994;7.570;2023-04-10T00:40:30;122.82;;;52.28;;
13269;SDS011;6703;51.994;7.570;2023-04-10T00:45:34;125.60;;;51.20;;
13269;SDS011;6703;51.994;7.570;2023-04-10T00:48:02;129.70;;;50.83;;
13269;SDS011;6703;51.994;7.570;2023-04-10T00:50:29;133.30;;;51.50;;
13269;SDS011;6703;51.994;7.570;2023-04-10T00:52:57;124.97;;;49.28;;
13269;SDS011;6703;51.994;7.570;2023-04-10T00:55:29;134.48;;;52.65;;
13269;SDS011;6703;51.994;7.570;2023-04-10T00:57:57;127.55;;;52.10;;
13269;SDS011;6703;51.994;7.570;2023-04-10T01:00:24;124.47;;;51.92;;
13269;SDS011;6703;51.994;7.570;2023-04-10T01:02:52;131.98;;;52.40;;
13269;SDS011;6703;51.994;7.570;2023-04-10T01:05:21;134.15;;;52.28;;
13269;SDS011;6703;51.994;7.570;2023-04-10T01:07:52;133.32;;;52.88;;
13269;SDS011;6703;51.994;7.570;2023-04-10T01:10:25;128.38;;;51.33;;
13269;SDS011;6703;51.994;7.570;2023-04-10T01:15:45;133.37;;;53.10;;
13269;SDS011;6703;51.994;7.570;2023-04-10T01:18:18;135.20;;;51.40;;
13269;SDS011;6703;51.994;7.570;2023-04-10T01:20:49;130.05;;;51.47;;
13269;SDS011;6703;51.994;7.570;2023-04-10T01:23:37;133.30;;;51.70;;
13269;SDS011;6703;51.994;7.570;2023-04-10T01:26:11;130.38;;;51.22;;
13269;SDS011;6703;51.994;7.570;2023-04-10T01:28:48;135.60;;;51.17;;
13269;SDS011;6703;51.994;7.570;2023-04-10T01:31:19;131.20;;;50.38;;
13269;SDS011;6703;51.994;7.570;2023-04-10T01:33:51;122.55;;;50.10;;
13269;SDS011;6703;51.994;7.570;2023-04-10T01:36:23;128.60;;;50.92;;
13269;SDS011;6703;51.994;7.570;2023-04-10T01:38:53;129.88;;;50.92;;
13269;SDS011;6703;51.994;7.570;2023-04-10T01:41:32;129.70;;;49.60;;
13269;SDS011;6703;51.994;7.570;2023-04-10T01:44:01;127.60;;;50.70;;
13269;SDS011;6703;51.994;7.570;2023-04-10T01:46:30;123.32;;;49.65;;
13269;SDS011;6703;51.994;7.570;2023-04-10T01:48:58;129.32;;;50.03;;
13269;SDS011;6703;51.994;7.570;2023-04-10T01:51:29;129.02;;;48.55;;
13269;SDS011;6703;51.994;7.570;2023-04-10T01:53:58;124.32;;;50.20;;
13269;SDS011;6703;51.994;7.570;2023-04-10T01:56:27;122.13;;;48.50;;
13269;SDS011;6703;51.994;7.570;2023-04-10T01:58:55;129.40;;;49.45;;
13269;SDS011;6703;51.994;7.570;2023-04-10T02:01:24;125.03;;;47.03;;
13269;SDS011;6703;51.994;7.570;2023-04-10T02:03:56;126.20;;;47.73;;
13269;SDS011;6703;51.994;7.570;2023-04-10T02:06:26;115.38;;;46.78;;
13269;SDS011;6703;51.994;7.570;2023-04-10T02:09:05;123.95;;;47.38;;
13269;SDS011;6703;51.994;7.570;2023-04-10T02:11:40;116.78;;;45.90;;
13269;SDS011;6703;51.994;7.570;2023-04-10T02:14:10;116.80;;;45.22;;
13269;SDS011;6703;51.994;7.570;2023-04-10T02:16:44;112.82;;;45.03;;
13269;SDS011;6703;51.994;7.570;2023-04-10T02:19:12;118.35;;;43.72;;
13269;SDS011;6703;51.994;7.570;2023-04-10T02:21:40;119.28;;;45.97;;
13269;SDS011;6703;51.994;7.570;2023-04-10T02:24:09;114.70;;;43.97;;
13269;SDS011;6703;51.994;7.570;2023-04-10T02:26:43;122.70;;;45.92;;
13269;SDS011;6703;51.994;7.570;2023-04-10T02:29:11;115.78;;;45.58;;
13269;SDS011;6703;51.994;7.570;2023-04-10T02:31:39;113.78;;;45.95;;
13269;SDS011;6703;51.994;7.570;2023-04-10T02:34:08;120.57;;;46.70;;
13269;SDS011;6703;51.994;7.570;2023-04-10T02:36:36;116.97;;;46.10;;
13269;SDS011;6703;51.994;7.570;2023-04-10T02:39:05;118.73;;;48.87;;
13269;SDS011;6703;51.994;7.570;2023-04-10T02:41:33;129.30;;;49.58;;
13269;SDS011;6703;51.994;7.570;2023-04-10T02:44:00;122.22;;;47.42;;
13269;SDS011;6703;51.994;7.570;2023-04-10T02:46:52;128.98;;;49.25;;
13269;SDS011;6703;51.994;7.570;2023-04-10T02:49:21;124.45;;;47.67;;
13269;SDS011;6703;51.994;7.570;2023-04-10T02:51:49;122.38;;;46.25;;
13269;SDS011;6703;51.994;7.570;2023-04-10T02:54:16;126.45;;;49.50;;
13269;SDS011;6703;51.994;7.570;2023-04-10T02:56:44;127.85;;;48.75;;
13269;SDS011;6703;51.994;7.570;2023-04-10T02:59:12;127.68;;;47.65;;
13269;SDS011;6703;51.994;7.570;2023-04-10T03:01:40;121.30;;;47.80;;
13269;SDS011;6703;51.994;7.570;2023-04-10T03:04:08;121.93;;;48.00;;
13269;SDS011;6703;51.994;7.570;2023-04-10T03:06:37;119.97;;;47.05;;
13269;SDS011;6703;51.994;7.570;2023-04-10T03:09:05;128.05;;;47.25;;
13269;SDS011;6703;51.994;7.570;2023-04-10T03:11:32;123.47;;;50.13;;
13269;SDS011;6703;51.994;7.570;2023-04-10T03:14:00;119.95;;;46.58;;
13269;SDS011;6703;51.994;7.570;2023-04-10T03:16:28;122.03;;;47.92;;
13269;SDS011;6703;51.994;7.570;2023-04-10T03:18:56;122.47;;;47.75;;
13269;SDS011;6703;51.994;7.570;2023-04-10T03:21:24;124.55;;;48.20;;
13269;SDS011;6703;51.994;7.570;2023-04-10T03:23:54;121.85;;;48.10;;
13269;SDS011;6703;51.994;7.570;2023-04-10T03:26:22;127.17;;;47.40;;
13269;SDS011;6703;51.994;7.570;2023-04-10T03:28:50;121.63;;;46.83;;
13269;SDS011;6703;51.994;7.570;2023-04-10T03:31:18;121.63;;;47.17;;
13269;SDS011;6703;51.994;7.570;2023-04-10T03:36:30;116.63;;;46.38;;
13269;SDS011;6703;51.994;7.570;2023-04-10T03:39:00;117.93;;;44.83;;
13269;SDS011;6703;51.994;7.570;2023-04-10T03:41:27;123.78;;;46.47;;
13269;SDS011;6703;51.994;7.570;2023-04-10T03:43:56;114.15;;;46.10;;
13269;SDS011;6703;51.994;7.570;2023-04-10T03:46:23;112.38;;;44.80;;
13269;SDS011;6703;51.994;7.570;2023-04-10T03:48:51;118.60;;;44.85;;
13269;SDS011;6703;51.994;7.570;2023-04-10T03:51:19;117.97;;;44.33;;
13269;SDS011;6703;51.994;7.570;2023-04-10T03:53:48;117.45;;;45.42;;
13269;SDS011;6703;51.994;7.570;2023-04-10T03:56:18;112.83;;;44.43;;
13269;SDS011;6703;51.994;7.570;2023-04-10T03:58:46;107.65;;;43.15;;
13269;SDS011;6703;51.994;7.570;2023-04-10T04:01:13;112.75;;;43.30;;
13269;SDS011;6703;51.994;7.570;2023-04-10T04:03:41;110.47;;;42.80;;
13269;SDS011;6703;51.994;7.570;2023-04-10T04:06:09;111.43;;;42.50;;
13269;SDS011;6703;51.994;7.570;2023-04-10T04:08:37;113.10;;;43.45;;
13269;SDS011;6703;51.994;7.570;2023-04-10T04:11:05;102.30;;;41.23;;
13269;SDS011;6703;51.994;7.570;2023-04-10T04:13:34;97.20;;;40.00;;
13269;SDS011;6703;51.994;7.570;2023-04-10T04:16:02;101.27;;;40.93;;
13269;SDS011;6703;51.994;7.570;2023-04-10T04:18:30;103.77;;;40.73;;
13269;SDS011;6703;51.994;7.570;2023-04-10T04:20:58;100.10;;;41.80;;
13269;SDS011;6703;51.994;7.570;2023-04-10T04:23:25;107.15;;;41.75;;
13269;SDS011;6703;51.994;7.570;2023-04-10T04:25:53;105.80;;;41.33;;
13269;SDS011;6703;51.994;7.570;2023-04-10T04:28:22;106.60;;;40.05;;
13269;SDS011;6703;51.994;7.570;2023-04-10T04:30:51;99.35;;;40.75;;
13269;SDS011;6703;51.994;7.570;2023-04-10T04:33:19;104.15;;;40.78;;
13269;SDS011;6703;51.994;7.570;2023-04-10T04:35:48;102.78;;;39.50;;
13269;SDS011;6703;51.994;7.570;2023-04-10T04:38:16;97.50;;;38.58;;
13269;SDS011;6703;51.994;7.570;2023-04-10T04:40:45;103.85;;;39.50;;
13269;SDS011;6703;51.994;7.570;2023-04-10T04:43:13;101.57;;;40.37;;
13269;SDS011;6703;51.994;7.570;2023-04-10T04:45:40;102.05;;;39.17;;
13269;SDS011;6703;51.994;7.570;2023-04-10T04:48:10;102.85;;;39.95;;
13269;SDS011;6703;51.994;7.570;2023-04-10T04:50:38;102.50;;;40.25;;
13269;SDS011;6703;51.994;7.570;2023-04-10T04:53:06;98.47;;;39.83;;
13269;SDS011;6703;51.994;7.570;2023-04-10T04:55:34;102.80;;;39.22;;
13269;SDS011;6703;51.994;7.570;2023-04-10T04:58:02;98.93;;;40.13;;
13269;SDS011;6703;51.994;7.570;2023-04-10T05:00:29;106.90;;;40.50;;
13269;SDS011;6703;51.994;7.570;2023-04-10T05:02:57;102.10;;;39.03;;
13269;SDS011;6703;51.994;7.570;2023-04-10T05:05:26;98.43;;;37.60;;
13269;SDS011;6703;51.994;7.570;2023-04-10T05:07:54;97.50;;;37.55;;
13269;SDS011;6703;51.994;7.570;2023-04-10T05:10:22;93.00;;;36.10;;
13269;SDS011;6703;51.994;7.570;2023-04-10T05:12:49;92.57;;;37.40;;
13269;SDS011;6703;51.994;7.570;2023-04-10T05:15:32;86.35;;;33.58;;
13269;SDS011;6703;51.994;7.570;2023-04-10T05:18:00;85.90;;;34.55;;
13269;SDS011;6703;51.994;7.570;2023-04-10T05:20:29;87.80;;;33.87;;
13269;SDS011;6703;51.994;7.570;2023-04-10T05:22:57;86.10;;;33.53;;
13269;SDS011;6703;51.994;7.570;2023-04-10T05:25:25;86.50;;;33.78;;
13269;SDS011;6703;51.994;7.570;2023-04-10T05:27:53;84.10;;;32.15;;
13269;SDS011;6703;51.994;7.570;2023-04-10T05:30:21;77.32;;;30.88;;
13269;SDS011;6703;51.994;7.570;2023-04-10T05:32:49;78.15;;;28.75;;
13269;SDS011;6703;51.994;7.570;2023-04-10T05:35:17;79.05;;;29.33;;
13269;SDS011;6703;51.994;7.570;2023-04-10T05:37:46;73.37;;;29.03;;
13269;SDS011;6703;51.994;7.570;2023-04-10T05:40:14;70.97;;;28.05;;
13269;SDS011;6703;51.994;7.570;2023-04-10T05:42:42;66.75;;;26.30;;
13269;SDS011;6703;51.994;7.570;2023-04-10T05:45:09;65.07;;;26.43;;
13269;SDS011;6703;51.994;7.570;2023-04-10T05:47:37;60.47;;;24.17;;
13269;SDS011;6703;51.994;7.570;2023-04-10T05:50:05;64.50;;;25.40;;
13269;SDS011;6703;51.994;7.570;2023-04-10T05:52:33;61.47;;;23.65;;
13269;SDS011;6703;51.994;7.570;2023-04-10T05:55:03;58.10;;;22.80;;
13269;SDS011;6703;51.994;7.570;2023-04-10T05:57:31;53.97;;;22.05;;
13269;SDS011;6703;51.994;7.570;2023-04-10T05:59:59;49.83;;;22.07;;
13269;SDS011;6703;51.994;7.570;2023-04-10T06:02:26;55.47;;;22.02;;
13269;SDS011;6703;51.994;7.570;2023-04-10T06:04:54;53.75;;;20.75;;
13269;SDS011;6703;51.994;7.570;2023-04-10T06:07:22;46.80;;;20.05;;
13269;SDS011;6703;51.994;7.570;2023-04-10T06:09:50;50.15;;;20.10;;
13269;SDS011;6703;51.994;7.570;2023-04-10T06:12:19;45.60;;;19.40;;
13269;SDS011;6703;51.994;7.570;2023-04-10T06:14:47;45.03;;;18.85;;
13269;SDS011;6703;51.994;7.570;2023-04-10T06:17:15;40.90;;;18.55;;
13269;SDS011;6703;51.994;7.570;2023-04-10T06:19:43;39.92;;;17.42;;
13269;SDS011;6703;51.994;7.570;2023-04-10T06:22:11;40.70;;;15.77;;
13269;SDS011;6703;51.994;7.570;2023-04-10T06:24:38;39.80;;;16.87;;
13269;SDS011;6703;51.994;7.570;2023-04-10T06:27:06;39.72;;;17.00;;
13269;SDS011;6703;51.994;7.570;2023-04-10T06:29:35;37.70;;;15.43;;
13269;SDS011;6703;51.994;7.570;2023-04-10T06:32:03;37.28;;;15.18;;
13269;SDS011;6703;51.994;7.570;2023-04-10T06:34:31;34.80;;;14.48;;
13269;SDS011;6703;51.994;7.570;2023-04-10T06:36:58;37.30;;;14.93;;
13269;SDS011;6703;51.994;7.570;2023-04-10T06:39:26;30.00;;;13.70;;
13269;SDS011;6703;51.994;7.570;2023-04-10T06:41:54;32.53;;;14.03;;
13269;SDS011;6703;51.994;7.570;2023-04-10T06:44:22;29.23;;;13.77;;
13269;SDS011;6703;51.994;7.570;2023-04-10T06:46:52;30.33;;;12.88;;
13269;SDS011;6703;51.994;7.570;2023-04-10T06:49:19;28.65;;;12.15;;
13269;SDS011;6703;51.994;7.570;2023-04-10T06:51:47;25.38;;;11.75;;
13269;SDS011;6703;51.994;7.570;2023-04-10T06:54:15;24.10;;;11.88;;
13269;SDS011;6703;51.994;7.570;2023-04-10T06:56:42;27.23;;;11.80;;
13269;SDS011;6703;51.994;7.570;2023-04-10T06:59:10;24.67;;;11.43;;
13269;SDS011;6703;51.994;7.570;2023-04-10T07:01:38;25.05;;;12.10;;
13269;SDS011;6703;51.994;7.570;2023-04-10T07:04:07;22.35;;;10.88;;
13269;SDS011;6703;51.994;7.570;2023-04-10T07:06:35;24.30;;;10.83;;
13269;SDS011;6703;51.994;7.570;2023-04-10T07:09:03;24.77;;;11.43;;
13269;SDS011;6703;51.994;7.570;2023-04-10T07:11:30;23.60;;;10.40;;
13269;SDS011;6703;51.994;7.570;2023-04-10T07:13:58;23.10;;;10.20;;
13269;SDS011;6703;51.994;7.570;2023-04-10T07:16:26;21.88;;;10.02;;
13269;SDS011;6703;51.994;7.570;2023-04-10T07:18:54;22.90;;;10.32;;
13269;SDS011;6703;51.994;7.570;2023-04-10T07:21:24;20.15;;;9.57;;
13269;SDS011;6703;51.994;7.570;2023-04-10T07:23:52;20.48;;;9.85;;
13269;SDS011;6703;51.994;7.570;2023-04-10T07:26:20;20.08;;;9.70;;
13269;SDS011;6703;51.994;7.570;2023-04-10T07:28:47;22.30;;;10.35;;
13269;SDS011;6703;51.994;7.570;2023-04-10T07:31:15;18.65;;;8.93;;
13269;SDS011;6703;51.994;7.570;2023-04-10T07:33:44;21.08;;;9.52;;
13269;SDS011;6703;51.994;7.570;2023-04-10T07:36:12;16.15;;;8.70;;
13269;SDS011;6703;51.994;7.570;2023-04-10T07:38:41;18.20;;;8.50;;
13269;SDS011;6703;51.994;7.570;2023-04-10T07:41:09;17.00;;;8.23;;
13269;SDS011;6703;51.994;7.570;2023-04-10T07:43:37;16.83;;;8.47;;
13269;SDS011;6703;51.994;7.570;2023-04-10T07:46:05;16.50;;;7.80;;
13269;SDS011;6703;51.994;7.570;2023-04-10T07:48:33;18.00;;;8.30;;
13269;SDS011;6703;51.994;7.570;2023-04-10T07:51:01;15.90;;;8.13;;
13269;SDS011;6703;51.994;7.570;2023-04-10T07:53:29;15.70;;;7.82;;
13269;SDS011;6703;51.994;7.570;2023-04-10T07:55:58;20.10;;;8.70;;
13269;SDS011;6703;51.994;7.570;2023-04-10T07:58:26;16.05;;;7.88;;
13269;SDS011;6703;51.994;7.570;2023-04-10T08:00:54;15.80;;;7.97;;
13269;SDS011;6703;51.994;7.570;2023-04-10T08:03:22;15.57;;;7.70;;
13269;SDS011;6703;51.994;7.570;2023-04-10T08:05:50;15.75;;;8.15;;
13269;SDS011;6703;51.994;7.570;2023-04-10T08:08:18;18.50;;;8.40;;
13269;SDS011;6703;51.994;7.570;2023-04-10T08:10:45;16.42;;;7.85;;
13269;SDS011;6703;51.994;7.570;2023-04-10T08:13:15;16.30;;;7.50;;
13269;SDS011;6703;51.994;7.570;2023-04-10T08:15:43;14.77;;;7.43;;
13269;SDS011;6703;51.994;7.570;2023-04-10T08:18:10;14.93;;;6.80;;
13269;SDS011;6703;51.994;7.570;2023-04-10T08:20:38;16.80;;;7.45;;
13269;SDS011;6703;51.994;7.570;2023-04-10T08:23:06;13.70;;;6.82;;
13269;SDS011;6703;51.994;7.570;2023-04-10T08:25:53;13.32;;;6.95;;
13269;SDS011;6703;51.994;7.570;2023-04-10T08:28:22;11.20;;;6.50;;
13269;SDS011;6703;51.994;7.570;2023-04-10T08:30:51;14.82;;;6.65;;
13269;SDS011;6703;51.994;7.570;2023-04-10T08:33:19;16.25;;;6.90;;
13269;SDS011;6703;51.994;7.570;2023-04-10T08:35:47;12.88;;;6.38;;
13269;SDS011;6703;51.994;7.570;2023-04-10T08:38:15;13.55;;;6.38;;
13269;SDS011;6703;51.994;7.570;2023-04-10T08:40:42;12.60;;;6.53;;
13269;SDS011;6703;51.994;7.570;2023-04-10T08:43:10;15.15;;;6.85;;
13269;SDS011;6703;51.994;7.570;2023-04-10T08:45:40;12.70;;;6.50;;
13269;SDS011;6703;51.994;7.570;2023-04-10T08:48:09;14.48;;;6.60;;
13269;SDS011;6703;51.994;7.570;2023-04-10T08:50:40;11.03;;;6.33;;
13269;SDS011;6703;51.994;7.570;2023-04-10T08:53:09;13.52;;;6.88;;
13269;SDS011;6703;51.994;7.570;2023-04-10T08:55:39;16.35;;;7.40;;
13269;SDS011;6703;51.994;7.570;2023-04-10T08:58:07;13.50;;;6.82;;
13269;SDS011;6703;51.994;7.570;2023-04-10T09:00:38;13.90;;;7.03;;
13269;SDS011;6703;51.994;7.570;2023-04-10T09:03:24;15.73;;;7.88;;
13269;SDS011;6703;51.994;7.570;2023-04-10T09:05:52;13.25;;;7.13;;
13269;SDS011;6703;51.994;7.570;2023-04-10T09:08:20;13.80;;;7.15;;
13269;SDS011;6703;51.994;7.570;2023-04-10T09:10:48;15.85;;;7.45;;
13269;SDS011;6703;51.994;7.570;2023-04-10T09:13:33;14.30;;;7.40;;
13269;SDS011;6703;51.994;7.570;2023-04-10T09:16:03;15.52;;;7.28;;
13269;SDS011;6703;51.994;7.570;2023-04-10T09:18:39;16.60;;;7.50;;
13269;SDS011;6703;51.994;7.570;2023-04-10T09:21:10;13.32;;;6.78;;
13269;SDS011;6703;51.994;7.570;2023-04-10T09:23:39;12.35;;;6.85;;
13269;SDS011;6703;51.994;7.570;2023-04-10T09:26:23;12.85;;;7.03;;
13269;SDS011;6703;51.994;7.570;2023-04-10T09:28:55;14.73;;;6.45;;
13269;SDS011;6703;51.994;7.570;2023-04-10T09:31:35;12.15;;;5.80;;
13269;SDS011;6703;51.994;7.570;2023-04-10T09:34:07;10.27;;;5.60;;
13269;SDS011;6703;51.994;7.570;2023-04-10T09:36:37;11.18;;;5.88;;
13269;SDS011;6703;51.994;7.570;2023-04-10T09:39:07;11.60;;;5.40;;
13269;SDS011;6703;51.994;7.570;2023-04-10T09:41:45;9.45;;;4.57;;
13269;SDS011;6703;51.994;7.570;2023-04-10T09:44:15;7.70;;;3.92;;
13269;SDS011;6703;51.994;7.570;2023-04-10T09:46:45;5.45;;;3.35;;
13269;SDS011;6703;51.994;7.570;2023-04-10T09:49:14;5.35;;;2.92;;
13269;SDS011;6703;51.994;7.570;2023-04-10T09:51:42;5.95;;;2.80;;
13269;SDS011;6703;51.994;7.570;2023-04-10T09:54:10;4.82;;;2.67;;
13269;SDS011;6703;51.994;7.570;2023-04-10T09:56:38;5.77;;;2.50;;
13269;SDS011;6703;51.994;7.570;2023-04-10T09:59:06;3.75;;;2.35;;
13269;SDS011;6703;51.994;7.570;2023-04-10T10:01:35;3.85;;;2.58;;
13269;SDS011;6703;51.994;7.570;2023-04-10T10:04:05;3.75;;;2.47;;
13269;SDS011;6703;51.994;7.570;2023-04-10T10:06:34;5.43;;;2.70;;
13269;SDS011;6703;51.994;7.570;2023-04-10T10:09:04;3.92;;;2.20;;
13269;SDS011;6703;51.994;7.570;2023-04-10T10:11:32;3.80;;;2.22;;
13269;SDS011;6703;51.994;7.570;2023-04-10T10:14:02;5.10;;;2.65;;
13269;SDS011;6703;51.994;7.570;2023-04-10T10:16:33;4.05;;;2.30;;
13269;SDS011;6703;51.994;7.570;2023-04-10T10:19:04;4.15;;;2.47;;
13269;SDS011;6703;51.994;7.570;2023-04-10T10:21:35;4.05;;;2.35;;
13269;SDS011;6703;51.994;7.570;2023-04-10T10:24:06;4.30;;;2.33;;
13269;SDS011;6703;51.994;7.570;2023-04-10T10:26:34;3.22;;;2.13;;
13269;SDS011;6703;51.994;7.570;2023-04-10T10:29:04;7.47;;;2.63;;
13269;SDS011;6703;51.994;7.570;2023-04-10T10:31:36;6.45;;;2.70;;
13269;SDS011;6703;51.994;7.570;2023-04-10T10:34:04;4.15;;;2.05;;
13269;SDS011;6703;51.994;7.570;2023-04-10T10:36:35;3.63;;;2.42;;
13269;SDS011;6703;51.994;7.570;2023-04-10T10:39:11;4.07;;;2.25;;
13269;SDS011;6703;51.994;7.570;2023-04-10T10:41:46;3.63;;;2.30;;
13269;SDS011;6703;51.994;7.570;2023-04-10T10:44:22;3.28;;;2.08;;
13269;SDS011;6703;51.994;7.570;2023-04-10T10:46:57;3.83;;;2.30;;
13269;SDS011;6703;51.994;7.570;2023-04-10T10:52:43;3.05;;;1.88;;
13269;SDS011;6703;51.994;7.570;2023-04-10T10:55:27;4.82;;;2.22;;
13269;SDS011;6703;51.994;7.570;2023-04-10T10:57:58;3.40;;;2.38;;
13269;SDS011;6703;51.994;7.570;2023-04-10T11:03:35;3.80;;;1.90;;
13269;SDS011;6703;51.994;7.570;2023-04-10T11:06:04;2.92;;;2.03;;
13269;SDS011;6703;51.994;7.570;2023-04-10T11:08:36;3.13;;;1.80;;
13269;SDS011;6703;51.994;7.570;2023-04-10T11:11:10;4.30;;;1.83;;
13269;SDS011;6703;51.994;7.570;2023-04-10T11:13:42;3.05;;;2.00;;
13269;SDS011;6703;51.994;7.570;2023-04-10T11:16:42;2.85;;;1.67;;
13269;SDS011;6703;51.994;7.570;2023-04-10T11:19:12;2.63;;;1.70;;
13269;SDS011;6703;51.994;7.570;2023-04-10T11:22:01;5.32;;;1.83;;
13269;SDS011;6703;51.994;7.570;2023-04-10T11:27:39;3.00;;;1.50;;
13269;SDS011;6703;51.994;7.570;2023-04-10T11:30:26;2.17;;;1.58;;
13269;SDS011;6703;51.994;7.570;2023-04-10T11:32:55;3.40;;;1.40;;
13269;SDS011;6703;51.994;7.570;2023-04-10T11:35:23;3.70;;;1.20;;
13269;SDS011;6703;51.994;7.570;2023-04-10T11:38:06;3.53;;;1.50;;
13269;SDS011;6703;51.994;7.570;2023-04-10T11:40:36;3.22;;;1.42;;
13269;SDS011;6703;51.994;7.570;2023-04-10T11:43:19;3.85;;;1.40;;
13269;SDS011;6703;51.994;7.570;2023-04-10T11:45:47;2.93;;;1.50;;
13269;SDS011;6703;51.994;7.570;2023-04-10T11:48:15;2.40;;;1.20;;
13269;SDS011;6703;51.994;7.570;2023-04-10T11:50:43;4.00;;;1.50;;
13269;SDS011;6703;51.994;7.570;2023-04-10T11:53:17;4.45;;;1.50;;
13269;SDS011;6703;51.994;7.570;2023-04-10T11:55:48;4.00;;;1.58;;
13269;SDS011;6703;51.994;7.570;2023-04-10T11:58:20;6.28;;;1.80;;
13269;SDS011;6703;51.994;7.570;2023-04-10T12:00:56;1.95;;;1.58;;
13269;SDS011;6703;51.994;7.570;2023-04-10T12:03:31;2.25;;;1.40;;
13269;SDS011;6703;51.994;7.570;2023-04-10T12:06:00;1.70;;;1.38;;
13269;SDS011;6703;51.994;7.570;2023-04-10T12:08:31;2.15;;;1.35;;
13269;SDS011;6703;51.994;7.570;2023-04-10T12:11:00;2.80;;;1.40;;
13269;SDS011;6703;51.994;7.570;2023-04-10T12:13:29;1.75;;;1.20;;
13269;SDS011;6703;51.994;7.570;2023-04-10T12:15:58;1.77;;;1.30;;
13269;SDS011;6703;51.994;7.570;2023-04-10T12:18:27;2.53;;;1.40;;
13269;SDS011;6703;51.994;7.570;2023-04-10T12:20:57;2.53;;;1.40;;
13269;SDS011;6703;51.994;7.570;2023-04-10T12:23:25;1.77;;;1.20;;
13269;SDS011;6703;51.994;7.570;2023-04-10T12:26:05;3.55;;;1.30;;
13269;SDS011;6703;51.994;7.570;2023-04-10T12:28:36;2.22;;;1.23;;
13269;SDS011;6703;51.994;7.570;2023-04-10T12:31:04;1.70;;;1.33;;
13269;SDS011;6703;51.994;7.570;2023-04-10T12:33:33;1.85;;;1.33;;
13269;SDS011;6703;51.994;7.570;2023-04-10T12:36:00;2.50;;;1.13;;
13269;SDS011;6703;51.994;7.570;2023-04-10T12:38:38;1.75;;;1.17;;
13269;SDS011;6703;51.994;7.570;2023-04-10T12:41:09;2.90;;;1.23;;
13269;SDS011;6703;51.994;7.570;2023-04-10T12:43:38;2.58;;;1.48;;
13269;SDS011;6703;51.994;7.570;2023-04-10T12:46:08;1.67;;;1.20;;
13269;SDS011;6703;51.994;7.570;2023-04-10T12:48:36;1.50;;;1.15;;
13269;SDS011;6703;51.994;7.570;2023-04-10T12:51:04;1.92;;;1.27;;
13269;SDS011;6703;51.994;7.570;2023-04-10T12:53:41;1.65;;;1.20;;
13269;SDS011;6703;51.994;7.570;2023-04-10T12:56:11;3.13;;;1.25;;
13269;SDS011;6703;51.994;7.570;2023-04-10T12:58:39;2.40;;;1.38;;
13269;SDS011;6703;51.994;7.570;2023-04-10T13:01:08;1.85;;;1.27;;
13269;SDS011;6703;51.994;7.570;2023-04-10T13:03:37;3.40;;;1.35;;
13269;SDS011;6703;51.994;7.570;2023-04-10T13:06:05;2.25;;;1.05;;
13269;SDS011;6703;51.994;7.570;2023-04-10T13:08:33;2.15;;;1.45;;
13269;SDS011;6703;51.994;7.570;2023-04-10T13:11:02;1.20;;;1.00;;
13269;SDS011;6703;51.994;7.570;2023-04-10T13:13:31;1.90;;;1.20;;
13269;SDS011;6703;51.994;7.570;2023-04-10T13:15:59;1.50;;;1.10;;
13269;SDS011;6703;51.994;7.570;2023-04-10T13:18:27;4.30;;;1.40;;
13269;SDS011;6703;51.994;7.570;2023-04-10T13:20:54;2.53;;;1.20;;
13269;SDS011;6703;51.994;7.570;2023-04-10T13:23:22;2.22;;;1.42;;
13269;SDS011;6703;51.994;7.570;2023-04-10T13:25:50;6.28;;;1.40;;
13269;SDS011;6703;51.994;7.570;2023-04-10T13:28:18;2.03;;;1.38;;
13269;SDS011;6703;51.994;7.570;2023-04-10T13:30:48;2.65;;;1.30;;
13269;SDS011;6703;51.994;7.570;2023-04-10T13:33:15;2.03;;;1.33;;
13269;SDS011;6703;51.994;7.570;2023-04-10T13:36:01;1.35;;;1.13;;
13269;SDS011;6703;51.994;7.570;2023-04-10T13:38:29;3.03;;;1.42;;
13269;SDS011;6703;51.994;7.570;2023-04-10T13:40:56;1.52;;;1.13;;
13269;SDS011;6703;51.994;7.570;2023-04-10T13:43:24;2.17;;;1.23;;
13269;SDS011;6703;51.994;7.570;2023-04-10T13:45:53;2.75;;;1.35;;
13269;SDS011;6703;51.994;7.570;2023-04-10T13:48:21;2.05;;;1.50;;
13269;SDS011;6703;51.994;7.570;2023-04-10T13:51:03;1.98;;;1.35;;
13269;SDS011;6703;51.994;7.570;2023-04-10T13:53:30;1.60;;;1.05;;
13269;SDS011;6703;51.994;7.570;2023-04-10T13:55:58;1.95;;;1.30;;
13269;SDS011;6703;51.994;7.570;2023-04-10T13:58:26;2.17;;;1.27;;
13269;SDS011;6703;51.994;7.570;2023-04-10T14:00:58;2.97;;;1.40;;
13269;SDS011;6703;51.994;7.570;2023-04-10T14:03:26;2.00;;;1.30;;
13269;SDS011;6703;51.994;7.570;2023-04-10T14:05:54;3.50;;;1.50;;
13269;SDS011;6703;51.994;7.570;2023-04-10T14:08:22;2.50;;;1.27;;
13269;SDS011;6703;51.994;7.570;2023-04-10T14:10:50;2.38;;;1.30;;
13269;SDS011;6703;51.994;7.570;2023-04-10T14:13:17;2.03;;;1.20;;
13269;SDS011;6703;51.994;7.570;2023-04-10T14:15:45;1.97;;;1.20;;
13269;SDS011;6703;51.994;7.570;2023-04-10T14:18:14;2.33;;;1.40;;
13269;SDS011;6703;51.994;7.570;2023-04-10T14:20:43;2.80;;;1.52;;
13269;SDS011;6703;51.994;7.570;2023-04-10T14:23:11;2.30;;;1.30;;
13269;SDS011;6703;51.994;7.570;2023-04-10T14:25:43;2.03;;;1.33;;
13269;SDS011;6703;51.994;7.570;2023-04-10T14:28:11;5.78;;;1.40;;
13269;SDS011;6703;51.994;7.570;2023-04-10T14:30:43;2.42;;;1.33;;
13269;SDS011;6703;51.994;7.570;2023-04-10T14:33:11;2.70;;;1.60;;
13269;SDS011;6703;51.994;7.570;2023-04-10T14:35:42;3.30;;;1.70;;
13269;SDS011;6703;51.994;7.570;2023-04-10T14:38:10;4.88;;;1.95;;
13269;SDS011;6703;51.994;7.570;2023-04-10T14:40:38;3.57;;;1.97;;
13269;SDS011;6703;51.994;7.570;2023-04-10T14:43:06;3.13;;;1.60;;
13269;SDS011;6703;51.994;7.570;2023-04-10T14:45:34;2.50;;;1.60;;
13269;SDS011;6703;51.994;7.570;2023-04-10T14:48:02;3.53;;;1.50;;
13269;SDS011;6703;51.994;7.570;2023-04-10T14:50:30;3.23;;;1.63;;
13269;SDS011;6703;51.994;7.570;2023-04-10T14:52:59;3.05;;;1.50;;
13269;SDS011;6703;51.994;7.570;2023-04-10T14:55:28;4.30;;;1.55;;
13269;SDS011;6703;51.994;7.570;2023-04-10T14:57:56;2.33;;;1.52;;
13269;SDS011;6703;51.994;7.570;2023-04-10T15:00:24;3.40;;;1.63;;
13269;SDS011;6703;51.994;7.570;2023-04-10T15:02:52;2.45;;;1.52;;
13269;SDS011;6703;51.994;7.570;2023-04-10T15:05:22;2.45;;;1.50;;
13269;SDS011;6703;51.994;7.570;2023-04-10T15:07:51;2.60;;;1.38;;
13269;SDS011;6703;51.994;7.570;2023-04-10T15:10:21;2.08;;;1.50;;
13269;SDS011;6703;51.994;7.570;2023-04-10T15:12:48;2.08;;;1.50;;
13269;SDS011;6703;51.994;7.570;2023-04-10T15:15:16;3.80;;;1.90;;